sensor_id;sensor_type;location;lat;lon;timestamp;P1;durP1;ratioP1;P2;durP2;ratioP2
19739;SDS011;10027;51.066;13.768;2023-03-12T00:02:09;8.30;;;3.53;;
19739;SDS011;10027;51.066;13.768;2023-03-12T00:04:37;8.90;;;3.53;;
19739;SDS011;10027;51.066;13.768;2023-03-12T00:07:04;7.33;;;3.80;;
19739;SDS011;10027;51.066;13.768;2023-03-12T00:09:35;7.53;;;4.20;;
19739;SDS011;10027;51.066;13.768;2023-03-12T00:12:03;6.80;;;3.63;;
19739;SDS011;10027;51.066;13.768;2023-03-12T00:14:31;6.37;;;4.00;;
19739;SDS011;10027;51.066;13.768;2023-03-12T00:16:58;6.03;;;3.73;;
19739;SDS011;10027;51.066;13.768;2023-03-12T00:19:25;10.10;;;3.83;;
19739;SDS011;10027;51.066;13.768;2023-03-12T00:21:52;5.60;;;3.47;;
19739;SDS011;10027;51.066;13.768;2023-03-12T00:24:19;8.43;;;3.00;;
19739;SDS011;10027;51.066;13.768;2023-03-12T00:26:46;6.00;;;3.43;;
19739;SDS011;10027;51.066;13.768;2023-03-12T00:29:13;6.23;;;3.27;;
19739;SDS011;10027;51.066;13.768;2023-03-12T00:31:40;6.70;;;3.03;;
19739;SDS011;10027;51.066;13.768;2023-03-12T00:34:08;5.67;;;2.80;;
19739;SDS011;10027;51.066;13.768;2023-03-12T00:36:35;7.47;;;2.70;;
19739;SDS011;10027;51.066;13.768;2023-03-12T00:39:02;8.90;;;2.47;;
19739;SDS011;10027;51.066;13.768;2023-03-12T00:41:29;5.33;;;2.97;;
19739;SDS011;10027;51.066;13.768;2023-03-12T00:43:56;3.60;;;2.20;;
19739;SDS011;10027;51.066;13.768;2023-03-12T00:46:24;6.13;;;2.63;;
19739;SDS011;10027;51.066;13.768;2023-03-12T00:48:51;6.13;;;2.53;;
19739;SDS011;10027;51.066;13.768;2023-03-12T00:51:18;5.00;;;2.70;;
19739;SDS011;10027;51.066;13.768;2023-03-12T00:53:45;3.77;;;1.97;;
19739;SDS011;10027;51.066;13.768;2023-03-12T00:56:12;4.40;;;2.20;;
19739;SDS011;10027;51.066;13.768;2023-03-12T00:58:40;3.47;;;2.20;;
19739;SDS011;10027;51.066;13.768;2023-03-12T01:01:08;3.10;;;2.10;;
19739;SDS011;10027;51.066;13.768;2023-03-12T01:03:35;5.07;;;2.27;;
19739;SDS011;10027;51.066;13.768;2023-03-12T01:06:02;8.50;;;2.10;;
19739;SDS011;10027;51.066;13.768;2023-03-12T01:08:30;3.80;;;2.10;;
19739;SDS011;10027;51.066;13.768;2023-03-12T01:10:57;4.57;;;2.37;;
19739;SDS011;10027;51.066;13.768;2023-03-12T01:13:24;2.87;;;1.80;;
19739;SDS011;10027;51.066;13.768;2023-03-12T01:15:51;3.83;;;2.00;;
19739;SDS011;10027;51.066;13.768;2023-03-12T01:18:18;4.87;;;2.13;;
19739;SDS011;10027;51.066;13.768;2023-03-12T01:20:45;3.23;;;1.97;;
19739;SDS011;10027;51.066;13.768;2023-03-12T01:23:12;4.30;;;2.00;;
19739;SDS011;10027;51.066;13.768;2023-03-12T01:25:40;5.83;;;2.13;;
19739;SDS011;10027;51.066;13.768;2023-03-12T01:28:07;3.60;;;1.70;;
19739;SDS011;10027;51.066;13.768;2023-03-12T01:30:34;2.97;;;1.73;;
19739;SDS011;10027;51.066;13.768;2023-03-12T01:33:01;4.00;;;1.90;;
19739;SDS011;10027;51.066;13.768;2023-03-12T01:35:28;5.70;;;1.83;;
19739;SDS011;10027;51.066;13.768;2023-03-12T01:37:56;3.40;;;1.80;;
19739;SDS011;10027;51.066;13.768;2023-03-12T01:40:23;4.13;;;1.60;;
19739;SDS011;10027;51.066;13.768;2023-03-12T01:42:55;2.73;;;1.60;;
19739;SDS011;10027;51.066;13.768;2023-03-12T01:48:08;2.80;;;1.30;;
19739;SDS011;10027;51.066;13.768;2023-03-12T01:50:36;2.87;;;1.50;;
19739;SDS011;10027;51.066;13.768;2023-03-12T01:53:03;4.33;;;1.70;;
19739;SDS011;10027;51.066;13.768;2023-03-12T01:55:30;2.07;;;1.47;;
19739;SDS011;10027;51.066;13.768;2023-03-12T01:57:57;3.27;;;1.70;;
19739;SDS011;10027;51.066;13.768;2023-03-12T02:00:25;2.40;;;1.63;;
19739;SDS011;10027;51.066;13.768;2023-03-12T02:02:53;2.87;;;1.37;;
19739;SDS011;10027;51.066;13.768;2023-03-12T02:05:24;3.57;;;1.90;;
19739;SDS011;10027;51.066;13.768;2023-03-12T02:07:54;3.60;;;1.73;;
19739;SDS011;10027;51.066;13.768;2023-03-12T02:10:22;3.87;;;1.63;;
19739;SDS011;10027;51.066;13.768;2023-03-12T02:12:49;3.57;;;1.60;;
19739;SDS011;10027;51.066;13.768;2023-03-12T02:15:17;2.03;;;1.47;;
19739;SDS011;10027;51.066;13.768;2023-03-12T02:17:44;2.53;;;1.47;;
19739;SDS011;10027;51.066;13.768;2023-03-12T02:20:20;4.30;;;1.60;;
19739;SDS011;10027;51.066;13.768;2023-03-12T02:23:08;4.00;;;1.63;;
19739;SDS011;10027;51.066;13.768;2023-03-12T02:25:36;5.43;;;2.10;;
19739;SDS011;10027;51.066;13.768;2023-03-12T02:28:06;3.43;;;1.87;;
19739;SDS011;10027;51.066;13.768;2023-03-12T02:30:33;3.80;;;1.60;;
19739;SDS011;10027;51.066;13.768;2023-03-12T02:33:04;3.80;;;1.90;;
19739;SDS011;10027;51.066;13.768;2023-03-12T02:35:31;2.67;;;1.50;;
19739;SDS011;10027;51.066;13.768;2023-03-12T02:37:58;4.37;;;1.60;;
19739;SDS011;10027;51.066;13.768;2023-03-12T02:40:38;3.97;;;1.20;;
19739;SDS011;10027;51.066;13.768;2023-03-12T02:43:08;2.03;;;1.23;;
19739;SDS011;10027;51.066;13.768;2023-03-12T02:45:36;2.73;;;1.20;;
19739;SDS011;10027;51.066;13.768;2023-03-12T02:48:04;2.90;;;1.47;;
19739;SDS011;10027;51.066;13.768;2023-03-12T02:50:33;2.47;;;1.30;;
19739;SDS011;10027;51.066;13.768;2023-03-12T02:53:00;4.30;;;1.60;;
19739;SDS011;10027;51.066;13.768;2023-03-12T02:55:28;3.17;;;1.50;;
19739;SDS011;10027;51.066;13.768;2023-03-12T02:57:55;2.90;;;1.27;;
19739;SDS011;10027;51.066;13.768;2023-03-12T03:00:22;2.17;;;1.53;;
19739;SDS011;10027;51.066;13.768;2023-03-12T03:02:49;3.23;;;1.60;;
19739;SDS011;10027;51.066;13.768;2023-03-12T03:05:16;2.23;;;1.40;;
19739;SDS011;10027;51.066;13.768;2023-03-12T03:07:45;1.37;;;1.07;;
19739;SDS011;10027;51.066;13.768;2023-03-12T03:10:12;4.50;;;1.53;;
19739;SDS011;10027;51.066;13.768;2023-03-12T03:12:40;3.67;;;1.40;;
19739;SDS011;10027;51.066;13.768;2023-03-12T03:15:08;4.83;;;1.50;;
19739;SDS011;10027;51.066;13.768;2023-03-12T03:17:35;1.93;;;1.03;;
19739;SDS011;10027;51.066;13.768;2023-03-12T03:20:02;2.30;;;1.40;;
19739;SDS011;10027;51.066;13.768;2023-03-12T03:22:33;1.57;;;1.20;;
19739;SDS011;10027;51.066;13.768;2023-03-12T03:25:00;3.00;;;1.30;;
19739;SDS011;10027;51.066;13.768;2023-03-12T03:27:27;3.23;;;1.17;;
19739;SDS011;10027;51.066;13.768;2023-03-12T03:29:54;3.43;;;1.50;;
19739;SDS011;10027;51.066;13.768;2023-03-12T03:32:21;3.73;;;1.37;;
19739;SDS011;10027;51.066;13.768;2023-03-12T03:34:48;2.17;;;1.10;;
19739;SDS011;10027;51.066;13.768;2023-03-12T03:37:15;3.23;;;1.37;;
19739;SDS011;10027;51.066;13.768;2023-03-12T03:39:43;5.97;;;1.20;;
19739;SDS011;10027;51.066;13.768;2023-03-12T03:42:10;3.03;;;1.43;;
19739;SDS011;10027;51.066;13.768;2023-03-12T03:44:37;1.67;;;1.07;;
19739;SDS011;10027;51.066;13.768;2023-03-12T03:47:04;2.20;;;0.90;;
19739;SDS011;10027;51.066;13.768;2023-03-12T03:49:31;1.00;;;0.90;;
19739;SDS011;10027;51.066;13.768;2023-03-12T03:51:58;1.60;;;1.17;;
19739;SDS011;10027;51.066;13.768;2023-03-12T03:54:25;4.03;;;1.30;;
19739;SDS011;10027;51.066;13.768;2023-03-12T03:56:52;2.67;;;1.10;;
19739;SDS011;10027;51.066;13.768;2023-03-12T03:59:19;2.13;;;1.10;;
19739;SDS011;10027;51.066;13.768;2023-03-12T04:01:47;2.60;;;1.20;;
19739;SDS011;10027;51.066;13.768;2023-03-12T04:04:14;2.33;;;1.23;;
19739;SDS011;10027;51.066;13.768;2023-03-12T04:06:42;1.93;;;0.97;;
19739;SDS011;10027;51.066;13.768;2023-03-12T04:09:09;4.10;;;1.10;;
19739;SDS011;10027;51.066;13.768;2023-03-12T04:11:36;1.67;;;1.07;;
19739;SDS011;10027;51.066;13.768;2023-03-12T04:14:03;2.23;;;0.97;;
19739;SDS011;10027;51.066;13.768;2023-03-12T04:16:30;2.57;;;1.20;;
19739;SDS011;10027;51.066;13.768;2023-03-12T04:18:57;2.83;;;1.37;;
19739;SDS011;10027;51.066;13.768;2023-03-12T04:21:24;2.33;;;1.03;;
19739;SDS011;10027;51.066;13.768;2023-03-12T04:23:51;1.83;;;0.70;;
19739;SDS011;10027;51.066;13.768;2023-03-12T04:26:18;3.63;;;1.40;;
19739;SDS011;10027;51.066;13.768;2023-03-12T04:28:45;2.93;;;1.17;;
19739;SDS011;10027;51.066;13.768;2023-03-12T04:31:12;5.97;;;1.17;;
19739;SDS011;10027;51.066;13.768;2023-03-12T04:33:40;2.27;;;0.83;;
19739;SDS011;10027;51.066;13.768;2023-03-12T04:36:07;1.80;;;1.20;;
19739;SDS011;10027;51.066;13.768;2023-03-12T04:38:34;1.87;;;0.80;;
19739;SDS011;10027;51.066;13.768;2023-03-12T04:41:03;1.30;;;0.90;;
19739;SDS011;10027;51.066;13.768;2023-03-12T04:43:31;1.53;;;0.97;;
19739;SDS011;10027;51.066;13.768;2023-03-12T04:45:58;1.10;;;0.60;;
19739;SDS011;10027;51.066;13.768;2023-03-12T04:48:26;1.30;;;0.80;;
19739;SDS011;10027;51.066;13.768;2023-03-12T04:50:53;2.93;;;1.00;;
19739;SDS011;10027;51.066;13.768;2023-03-12T04:53:20;6.00;;;1.07;;
19739;SDS011;10027;51.066;13.768;2023-03-12T04:55:48;1.07;;;0.70;;
19739;SDS011;10027;51.066;13.768;2023-03-12T04:58:16;1.47;;;0.80;;
19739;SDS011;10027;51.066;13.768;2023-03-12T05:00:43;5.40;;;1.10;;
19739;SDS011;10027;51.066;13.768;2023-03-12T05:03:10;1.80;;;0.77;;
19739;SDS011;10027;51.066;13.768;2023-03-12T05:05:37;1.60;;;0.70;;
19739;SDS011;10027;51.066;13.768;2023-03-12T05:08:04;1.17;;;0.87;;
19739;SDS011;10027;51.066;13.768;2023-03-12T05:10:32;1.27;;;0.70;;
19739;SDS011;10027;51.066;13.768;2023-03-12T05:12:59;0.80;;;0.80;;
19739;SDS011;10027;51.066;13.768;2023-03-12T05:15:27;1.60;;;0.90;;
19739;SDS011;10027;51.066;13.768;2023-03-12T05:17:54;2.40;;;0.90;;
19739;SDS011;10027;51.066;13.768;2023-03-12T05:20:21;1.30;;;0.77;;
19739;SDS011;10027;51.066;13.768;2023-03-12T05:22:48;1.23;;;0.77;;
19739;SDS011;10027;51.066;13.768;2023-03-12T05:25:15;2.33;;;0.90;;
19739;SDS011;10027;51.066;13.768;2023-03-12T05:27:42;0.80;;;0.70;;
19739;SDS011;10027;51.066;13.768;2023-03-12T05:30:10;2.27;;;1.10;;
19739;SDS011;10027;51.066;13.768;2023-03-12T05:32:37;0.80;;;0.60;;
19739;SDS011;10027;51.066;13.768;2023-03-12T05:35:04;3.57;;;0.80;;
19739;SDS011;10027;51.066;13.768;2023-03-12T05:37:31;1.57;;;0.67;;
19739;SDS011;10027;51.066;13.768;2023-03-12T05:39:59;2.00;;;0.87;;
19739;SDS011;10027;51.066;13.768;2023-03-12T05:42:26;1.13;;;0.80;;
19739;SDS011;10027;51.066;13.768;2023-03-12T05:44:53;1.60;;;0.83;;
19739;SDS011;10027;51.066;13.768;2023-03-12T05:47:20;0.97;;;0.60;;
19739;SDS011;10027;51.066;13.768;2023-03-12T05:49:47;1.53;;;1.00;;
19739;SDS011;10027;51.066;13.768;2023-03-12T05:52:14;1.00;;;0.87;;
19739;SDS011;10027;51.066;13.768;2023-03-12T05:54:41;2.90;;;1.20;;
19739;SDS011;10027;51.066;13.768;2023-03-12T05:57:08;3.30;;;1.00;;
19739;SDS011;10027;51.066;13.768;2023-03-12T05:59:35;4.03;;;0.90;;
19739;SDS011;10027;51.066;13.768;2023-03-12T06:02:03;1.73;;;1.00;;
19739;SDS011;10027;51.066;13.768;2023-03-12T06:04:30;2.40;;;1.20;;
19739;SDS011;10027;51.066;13.768;2023-03-12T06:06:57;1.87;;;1.10;;
19739;SDS011;10027;51.066;13.768;2023-03-12T06:09:24;3.20;;;1.33;;
19739;SDS011;10027;51.066;13.768;2023-03-12T06:11:51;2.33;;;1.20;;
19739;SDS011;10027;51.066;13.768;2023-03-12T06:14:18;1.70;;;0.90;;
19739;SDS011;10027;51.066;13.768;2023-03-12T06:16:45;5.97;;;0.80;;
19739;SDS011;10027;51.066;13.768;2023-03-12T06:19:12;1.93;;;1.07;;
19739;SDS011;10027;51.066;13.768;2023-03-12T06:21:41;2.40;;;0.90;;
19739;SDS011;10027;51.066;13.768;2023-03-12T06:24:08;2.87;;;1.00;;
19739;SDS011;10027;51.066;13.768;2023-03-12T06:26:35;2.10;;;0.87;;
19739;SDS011;10027;51.066;13.768;2023-03-12T06:29:02;1.77;;;0.90;;
19739;SDS011;10027;51.066;13.768;2023-03-12T06:31:29;1.93;;;1.00;;
19739;SDS011;10027;51.066;13.768;2023-03-12T06:33:56;5.07;;;1.30;;
19739;SDS011;10027;51.066;13.768;2023-03-12T06:36:23;2.13;;;1.07;;
19739;SDS011;10027;51.066;13.768;2023-03-12T06:38:50;2.10;;;1.00;;
19739;SDS011;10027;51.066;13.768;2023-03-12T06:41:21;3.63;;;0.80;;
19739;SDS011;10027;51.066;13.768;2023-03-12T06:43:48;1.30;;;0.83;;
19739;SDS011;10027;51.066;13.768;2023-03-12T06:46:17;1.90;;;1.10;;
19739;SDS011;10027;51.066;13.768;2023-03-12T06:48:46;1.30;;;0.90;;
19739;SDS011;10027;51.066;13.768;2023-03-12T06:51:14;3.80;;;1.10;;
19739;SDS011;10027;51.066;13.768;2023-03-12T06:53:41;1.03;;;0.80;;
19739;SDS011;10027;51.066;13.768;2023-03-12T06:56:09;3.80;;;1.10;;
19739;SDS011;10027;51.066;13.768;2023-03-12T06:58:36;2.20;;;0.80;;
19739;SDS011;10027;51.066;13.768;2023-03-12T07:01:03;1.40;;;0.90;;
19739;SDS011;10027;51.066;13.768;2023-03-12T07:03:31;2.17;;;0.90;;
19739;SDS011;10027;51.066;13.768;2023-03-12T07:05:58;1.50;;;0.80;;
19739;SDS011;10027;51.066;13.768;2023-03-12T07:08:25;1.60;;;0.87;;
19739;SDS011;10027;51.066;13.768;2023-03-12T07:10:56;1.57;;;0.93;;
19739;SDS011;10027;51.066;13.768;2023-03-12T07:13:26;1.90;;;0.80;;
19739;SDS011;10027;51.066;13.768;2023-03-12T07:15:53;1.20;;;0.83;;
19739;SDS011;10027;51.066;13.768;2023-03-12T07:18:20;1.93;;;0.80;;
19739;SDS011;10027;51.066;13.768;2023-03-12T07:20:47;1.50;;;0.90;;
19739;SDS011;10027;51.066;13.768;2023-03-12T07:23:15;3.93;;;0.93;;
19739;SDS011;10027;51.066;13.768;2023-03-12T07:25:42;2.17;;;1.20;;
19739;SDS011;10027;51.066;13.768;2023-03-12T07:28:10;1.53;;;0.90;;
19739;SDS011;10027;51.066;13.768;2023-03-12T07:30:38;1.60;;;0.90;;
19739;SDS011;10027;51.066;13.768;2023-03-12T07:33:06;1.23;;;0.77;;
19739;SDS011;10027;51.066;13.768;2023-03-12T07:35:33;3.00;;;0.87;;
19739;SDS011;10027;51.066;13.768;2023-03-12T07:38:00;1.73;;;0.63;;
19739;SDS011;10027;51.066;13.768;2023-03-12T07:40:28;2.77;;;0.83;;
19739;SDS011;10027;51.066;13.768;2023-03-12T07:42:55;1.23;;;0.90;;
19739;SDS011;10027;51.066;13.768;2023-03-12T07:45:23;5.33;;;0.90;;
19739;SDS011;10027;51.066;13.768;2023-03-12T07:47:50;1.30;;;0.80;;
19739;SDS011;10027;51.066;13.768;2023-03-12T07:50:17;2.53;;;1.17;;
19739;SDS011;10027;51.066;13.768;2023-03-12T07:52:45;4.17;;;1.17;;
19739;SDS011;10027;51.066;13.768;2023-03-12T07:55:13;2.40;;;1.20;;
19739;SDS011;10027;51.066;13.768;2023-03-12T07:57:41;2.30;;;1.10;;
19739;SDS011;10027;51.066;13.768;2023-03-12T08:00:09;1.83;;;1.13;;
19739;SDS011;10027;51.066;13.768;2023-03-12T08:02:36;1.57;;;1.10;;
19739;SDS011;10027;51.066;13.768;2023-03-12T08:05:04;2.83;;;1.20;;
19739;SDS011;10027;51.066;13.768;2023-03-12T08:07:31;3.50;;;1.40;;
19739;SDS011;10027;51.066;13.768;2023-03-12T08:10:00;3.97;;;1.37;;
19739;SDS011;10027;51.066;13.768;2023-03-12T08:12:28;3.17;;;1.60;;
19739;SDS011;10027;51.066;13.768;2023-03-12T08:14:55;2.93;;;1.60;;
19739;SDS011;10027;51.066;13.768;2023-03-12T08:17:22;3.93;;;1.40;;
19739;SDS011;10027;51.066;13.768;2023-03-12T08:19:49;2.73;;;1.70;;
19739;SDS011;10027;51.066;13.768;2023-03-12T08:22:16;3.47;;;1.80;;
19739;SDS011;10027;51.066;13.768;2023-03-12T08:24:43;2.60;;;1.40;;
19739;SDS011;10027;51.066;13.768;2023-03-12T08:27:10;2.53;;;1.80;;
19739;SDS011;10027;51.066;13.768;2023-03-12T08:29:38;2.10;;;1.50;;
19739;SDS011;10027;51.066;13.768;2023-03-12T08:32:05;3.13;;;1.83;;
19739;SDS011;10027;51.066;13.768;2023-03-12T08:34:33;2.77;;;1.70;;
19739;SDS011;10027;51.066;13.768;2023-03-12T08:37:00;3.30;;;1.57;;
19739;SDS011;10027;51.066;13.768;2023-03-12T08:39:28;2.80;;;1.57;;
19739;SDS011;10027;51.066;13.768;2023-03-12T08:41:55;3.23;;;1.70;;
19739;SDS011;10027;51.066;13.768;2023-03-12T08:44:24;4.80;;;1.80;;
19739;SDS011;10027;51.066;13.768;2023-03-12T08:46:51;2.60;;;1.67;;
19739;SDS011;10027;51.066;13.768;2023-03-12T08:49:19;2.77;;;1.60;;
19739;SDS011;10027;51.066;13.768;2023-03-12T08:51:46;1.73;;;1.47;;
19739;SDS011;10027;51.066;13.768;2023-03-12T08:54:13;4.43;;;1.67;;
19739;SDS011;10027;51.066;13.768;2023-03-12T08:59:16;3.77;;;1.80;;
19739;SDS011;10027;51.066;13.768;2023-03-12T09:01:45;2.87;;;1.70;;
19739;SDS011;10027;51.066;13.768;2023-03-12T09:04:12;2.67;;;1.50;;
19739;SDS011;10027;51.066;13.768;2023-03-12T09:06:39;2.77;;;1.70;;
19739;SDS011;10027;51.066;13.768;2023-03-12T09:09:06;2.33;;;1.77;;
19739;SDS011;10027;51.066;13.768;2023-03-12T09:11:34;2.57;;;1.90;;
19739;SDS011;10027;51.066;13.768;2023-03-12T09:14:02;2.57;;;1.70;;
19739;SDS011;10027;51.066;13.768;2023-03-12T09:16:49;3.90;;;1.70;;
19739;SDS011;10027;51.066;13.768;2023-03-12T09:19:16;3.17;;;1.90;;
19739;SDS011;10027;51.066;13.768;2023-03-12T09:21:43;2.90;;;1.93;;
19739;SDS011;10027;51.066;13.768;2023-03-12T09:24:10;3.13;;;1.73;;
19739;SDS011;10027;51.066;13.768;2023-03-12T09:26:37;7.83;;;1.80;;
19739;SDS011;10027;51.066;13.768;2023-03-12T09:29:04;3.60;;;1.37;;
19739;SDS011;10027;51.066;13.768;2023-03-12T09:31:31;4.67;;;1.50;;
19739;SDS011;10027;51.066;13.768;2023-03-12T09:33:59;2.57;;;1.10;;
19739;SDS011;10027;51.066;13.768;2023-03-12T09:36:26;2.27;;;0.97;;
19739;SDS011;10027;51.066;13.768;2023-03-12T09:39:04;1.20;;;0.80;;
19739;SDS011;10027;51.066;13.768;2023-03-12T09:41:33;2.77;;;1.00;;
19739;SDS011;10027;51.066;13.768;2023-03-12T09:46:36;1.43;;;0.80;;
19739;SDS011;10027;51.066;13.768;2023-03-12T09:49:05;2.50;;;1.00;;
19739;SDS011;10027;51.066;13.768;2023-03-12T09:51:40;3.73;;;1.10;;
19739;SDS011;10027;51.066;13.768;2023-03-12T09:54:18;1.00;;;0.90;;
19739;SDS011;10027;51.066;13.768;2023-03-12T09:56:49;1.60;;;0.80;;
19739;SDS011;10027;51.066;13.768;2023-03-12T09:59:16;1.33;;;0.90;;
19739;SDS011;10027;51.066;13.768;2023-03-12T10:01:51;2.50;;;0.90;;
19739;SDS011;10027;51.066;13.768;2023-03-12T10:07:26;1.10;;;0.90;;
19739;SDS011;10027;51.066;13.768;2023-03-12T10:15:29;2.60;;;0.80;;
19739;SDS011;10027;51.066;13.768;2023-03-12T10:25:45;3.10;;;0.80;;
19739;SDS011;10027;51.066;13.768;2023-03-12T10:28:17;0.77;;;0.77;;
19739;SDS011;10027;51.066;13.768;2023-03-12T10:30:47;2.27;;;0.90;;
19739;SDS011;10027;51.066;13.768;2023-03-12T10:33:16;1.83;;;0.80;;
19739;SDS011;10027;51.066;13.768;2023-03-12T10:35:44;1.23;;;0.60;;
19739;SDS011;10027;51.066;13.768;2023-03-12T10:38:23;2.47;;;0.50;;
19739;SDS011;10027;51.066;13.768;2023-03-12T10:40:52;1.23;;;0.50;;
19739;SDS011;10027;51.066;13.768;2023-03-12T10:43:19;1.13;;;0.50;;
19739;SDS011;10027;51.066;13.768;2023-03-12T10:45:51;0.90;;;0.40;;
19739;SDS011;10027;51.066;13.768;2023-03-12T10:48:23;2.23;;;0.70;;
19739;SDS011;10027;51.066;13.768;2023-03-12T10:51:07;1.30;;;0.60;;
19739;SDS011;10027;51.066;13.768;2023-03-12T10:53:41;1.90;;;0.67;;
19739;SDS011;10027;51.066;13.768;2023-03-12T10:56:14;1.37;;;0.60;;
19739;SDS011;10027;51.066;13.768;2023-03-12T10:58:45;0.73;;;0.57;;
19739;SDS011;10027;51.066;13.768;2023-03-12T11:03:49;2.57;;;0.70;;
19739;SDS011;10027;51.066;13.768;2023-03-12T11:06:21;1.70;;;0.60;;
19739;SDS011;10027;51.066;13.768;2023-03-12T11:11:42;1.13;;;0.60;;
19739;SDS011;10027;51.066;13.768;2023-03-12T11:14:20;2.00;;;0.60;;
19739;SDS011;10027;51.066;13.768;2023-03-12T11:16:48;2.93;;;0.60;;
19739;SDS011;10027;51.066;13.768;2023-03-12T11:19:27;1.50;;;0.60;;
19739;SDS011;10027;51.066;13.768;2023-03-12T11:22:05;1.00;;;0.60;;
19739;SDS011;10027;51.066;13.768;2023-03-12T11:24:33;1.17;;;0.60;;
19739;SDS011;10027;51.066;13.768;2023-03-12T11:27:02;0.83;;;0.57;;
19739;SDS011;10027;51.066;13.768;2023-03-12T11:29:35;1.23;;;0.70;;
19739;SDS011;10027;51.066;13.768;2023-03-12T11:32:24;1.97;;;0.70;;
19739;SDS011;10027;51.066;13.768;2023-03-12T11:34:55;1.47;;;0.73;;
19739;SDS011;10027;51.066;13.768;2023-03-12T11:58:34;1.57;;;0.73;;
19739;SDS011;10027;51.066;13.768;2023-03-12T12:01:12;1.70;;;0.93;;
19739;SDS011;10027;51.066;13.768;2023-03-12T12:11:33;1.77;;;0.90;;
19739;SDS011;10027;51.066;13.768;2023-03-12T12:22:11;1.83;;;0.90;;
19739;SDS011;10027;51.066;13.768;2023-03-12T12:32:17;2.07;;;1.00;;
19739;SDS011;10027;51.066;13.768;2023-03-12T12:34:53;2.67;;;0.90;;
19739;SDS011;10027;51.066;13.768;2023-03-12T12:39:58;3.27;;;0.93;;
19739;SDS011;10027;51.066;13.768;2023-03-12T12:42:34;1.73;;;1.07;;
19739;SDS011;10027;51.066;13.768;2023-03-12T12:45:02;1.90;;;1.37;;
19739;SDS011;10027;51.066;13.768;2023-03-12T12:50:37;2.30;;;1.40;;
19739;SDS011;10027;51.066;13.768;2023-03-12T12:55:33;2.43;;;1.40;;
19739;SDS011;10027;51.066;13.768;2023-03-12T12:58:06;2.17;;;1.30;;
19739;SDS011;10027;51.066;13.768;2023-03-12T13:00:50;2.77;;;1.33;;
19739;SDS011;10027;51.066;13.768;2023-03-12T13:03:23;2.00;;;1.23;;
19739;SDS011;10027;51.066;13.768;2023-03-12T13:11:03;4.67;;;1.57;;
19739;SDS011;10027;51.066;13.768;2023-03-12T13:13:45;2.10;;;1.30;;
19739;SDS011;10027;51.066;13.768;2023-03-12T13:16:30;2.00;;;1.33;;
19739;SDS011;10027;51.066;13.768;2023-03-12T13:18:59;3.00;;;1.60;;
19739;SDS011;10027;51.066;13.768;2023-03-12T13:21:34;2.63;;;1.70;;
19739;SDS011;10027;51.066;13.768;2023-03-12T13:29:19;2.93;;;1.50;;
19739;SDS011;10027;51.066;13.768;2023-03-12T13:31:46;2.73;;;1.23;;
19739;SDS011;10027;51.066;13.768;2023-03-12T13:36:44;1.80;;;1.17;;
19739;SDS011;10027;51.066;13.768;2023-03-12T13:41:48;2.37;;;1.30;;
19739;SDS011;10027;51.066;13.768;2023-03-12T13:46:59;2.43;;;1.40;;
19739;SDS011;10027;51.066;13.768;2023-03-12T13:49:47;2.13;;;1.17;;
19739;SDS011;10027;51.066;13.768;2023-03-12T13:52:28;1.80;;;1.33;;
19739;SDS011;10027;51.066;13.768;2023-03-12T13:55:00;2.03;;;1.20;;
19739;SDS011;10027;51.066;13.768;2023-03-12T13:57:29;2.57;;;1.10;;
19739;SDS011;10027;51.066;13.768;2023-03-12T13:59:57;2.13;;;1.20;;
19739;SDS011;10027;51.066;13.768;2023-03-12T14:02:26;2.73;;;1.07;;
19739;SDS011;10027;51.066;13.768;2023-03-12T14:05:00;1.43;;;1.20;;
19739;SDS011;10027;51.066;13.768;2023-03-12T14:07:37;2.63;;;1.07;;
19739;SDS011;10027;51.066;13.768;2023-03-12T14:10:09;1.07;;;0.90;;
19739;SDS011;10027;51.066;13.768;2023-03-12T14:18:24;3.17;;;1.10;;
19739;SDS011;10027;51.066;13.768;2023-03-12T14:20:53;2.07;;;1.17;;
19739;SDS011;10027;51.066;13.768;2023-03-12T14:23:21;1.80;;;1.00;;
19739;SDS011;10027;51.066;13.768;2023-03-12T14:25:51;2.10;;;0.97;;
19739;SDS011;10027;51.066;13.768;2023-03-12T14:28:22;3.33;;;1.03;;
19739;SDS011;10027;51.066;13.768;2023-03-12T14:33:20;3.13;;;1.00;;
19739;SDS011;10027;51.066;13.768;2023-03-12T14:35:50;2.17;;;1.10;;
19739;SDS011;10027;51.066;13.768;2023-03-12T14:38:26;1.50;;;0.90;;
19739;SDS011;10027;51.066;13.768;2023-03-12T14:43:23;2.27;;;1.20;;
19739;SDS011;10027;51.066;13.768;2023-03-12T14:45:53;2.17;;;1.10;;
19739;SDS011;10027;51.066;13.768;2023-03-12T14:48:22;2.23;;;1.00;;
19739;SDS011;10027;51.066;13.768;2023-03-12T14:50:49;2.73;;;1.27;;
19739;SDS011;10027;51.066;13.768;2023-03-12T14:58:32;3.50;;;1.40;;
19739;SDS011;10027;51.066;13.768;2023-03-12T15:01:02;5.77;;;1.80;;
19739;SDS011;10027;51.066;13.768;2023-03-12T15:03:41;1.80;;;1.20;;
19739;SDS011;10027;51.066;13.768;2023-03-12T15:06:28;1.97;;;1.30;;
19739;SDS011;10027;51.066;13.768;2023-03-12T15:08:56;2.37;;;1.50;;
19739;SDS011;10027;51.066;13.768;2023-03-12T15:11:24;3.00;;;1.47;;
19739;SDS011;10027;51.066;13.768;2023-03-12T15:13:53;3.00;;;1.60;;
19739;SDS011;10027;51.066;13.768;2023-03-12T15:16:20;1.90;;;1.27;;
19739;SDS011;10027;51.066;13.768;2023-03-12T15:18:48;3.37;;;1.67;;
19739;SDS011;10027;51.066;13.768;2023-03-12T15:21:15;3.93;;;1.40;;
19739;SDS011;10027;51.066;13.768;2023-03-12T15:23:44;2.43;;;1.83;;
19739;SDS011;10027;51.066;13.768;2023-03-12T15:28:39;1.97;;;1.47;;
19739;SDS011;10027;51.066;13.768;2023-03-12T15:31:08;4.50;;;1.60;;
19739;SDS011;10027;51.066;13.768;2023-03-12T15:33:37;3.70;;;2.13;;
19739;SDS011;10027;51.066;13.768;2023-03-12T15:36:14;2.50;;;1.60;;
19739;SDS011;10027;51.066;13.768;2023-03-12T15:38:54;4.10;;;1.60;;
19739;SDS011;10027;51.066;13.768;2023-03-12T15:41:27;3.43;;;1.80;;
19739;SDS011;10027;51.066;13.768;2023-03-12T15:43:55;2.87;;;1.70;;
19739;SDS011;10027;51.066;13.768;2023-03-12T15:46:23;4.40;;;2.20;;
19739;SDS011;10027;51.066;13.768;2023-03-12T15:48:51;3.20;;;1.97;;
19739;SDS011;10027;51.066;13.768;2023-03-12T15:53:59;3.83;;;1.80;;
19739;SDS011;10027;51.066;13.768;2023-03-12T15:56:27;2.77;;;1.80;;
19739;SDS011;10027;51.066;13.768;2023-03-12T15:59:03;5.47;;;2.00;;
19739;SDS011;10027;51.066;13.768;2023-03-12T16:01:42;3.30;;;1.80;;
19739;SDS011;10027;51.066;13.768;2023-03-12T16:04:09;3.10;;;1.73;;
19739;SDS011;10027;51.066;13.768;2023-03-12T16:06:36;3.10;;;1.77;;
19739;SDS011;10027;51.066;13.768;2023-03-12T16:09:03;8.93;;;2.50;;
19739;SDS011;10027;51.066;13.768;2023-03-12T16:11:31;3.50;;;1.97;;
19739;SDS011;10027;51.066;13.768;2023-03-12T16:16:29;5.47;;;2.50;;
19739;SDS011;10027;51.066;13.768;2023-03-12T16:18:56;4.10;;;1.97;;
19739;SDS011;10027;51.066;13.768;2023-03-12T16:21:23;3.70;;;2.20;;
19739;SDS011;10027;51.066;13.768;2023-03-12T16:23:51;5.13;;;2.37;;
19739;SDS011;10027;51.066;13.768;2023-03-12T16:26:18;5.30;;;2.37;;
19739;SDS011;10027;51.066;13.768;2023-03-12T16:28:45;5.33;;;2.30;;
19739;SDS011;10027;51.066;13.768;2023-03-12T16:31:13;5.77;;;2.53;;
19739;SDS011;10027;51.066;13.768;2023-03-12T16:33:40;5.43;;;2.40;;
19739;SDS011;10027;51.066;13.768;2023-03-12T16:36:10;4.33;;;2.73;;
19739;SDS011;10027;51.066;13.768;2023-03-12T16:38:38;4.37;;;2.50;;
19739;SDS011;10027;51.066;13.768;2023-03-12T16:41:08;7.90;;;2.63;;
19739;SDS011;10027;51.066;13.768;2023-03-12T16:43:36;5.33;;;2.70;;
19739;SDS011;10027;51.066;13.768;2023-03-12T16:46:03;3.40;;;2.70;;
19739;SDS011;10027;51.066;13.768;2023-03-12T16:48:33;5.23;;;3.17;;